createdAt,value
2022-10-20T00:00:45.646Z,8.51
2022-10-20T00:03:12.325Z,8.39
2022-10-20T00:05:39.065Z,8.28
2022-10-20T00:08:05.798Z,8.28
2022-10-20T00:10:32.476Z,8.45
2022-10-20T00:12:59.198Z,8.50
2022-10-20T00:15:25.924Z,8.60
2022-10-20T00:17:52.658Z,8.51
2022-10-20T00:20:19.299Z,8.33
2022-10-20T00:22:46.043Z,8.25
2022-10-20T00:25:12.686Z,8.23
2022-10-20T00:27:39.376Z,8.20
2022-10-20T00:30:06.427Z,8.13
2022-10-20T00:32:33.488Z,8.04
2022-10-20T00:35:00.378Z,8.11
2022-10-20T00:37:27.083Z,8.12
2022-10-20T00:39:53.754Z,8.16
2022-10-20T00:42:20.496Z,7.98
2022-10-20T00:44:57.836Z,8.12
2022-10-20T00:47:37.515Z,8.04
2022-10-20T00:50:09.490Z,7.93
2022-10-20T00:52:37.614Z,8.04
2022-10-20T00:55:05.455Z,7.89
2022-10-20T00:57:33.203Z,7.90
2022-10-20T01:00:00.188Z,7.96
2022-10-20T01:02:27.245Z,7.95
2022-10-20T01:04:53.956Z,7.93
2022-10-20T01:07:20.674Z,7.92
2022-10-20T01:09:47.446Z,7.96
2022-10-20T01:12:35.614Z,7.89
2022-10-20T01:15:11.457Z,7.86
2022-10-20T01:17:44.296Z,7.93
2022-10-20T01:20:20.056Z,7.98
2022-10-20T01:22:49.544Z,7.98
2022-10-20T01:25:31.226Z,8.05
2022-10-20T01:28:43.268Z,8.21
2022-10-20T01:31:42.518Z,8.07
2022-10-20T01:34:14.836Z,8.00
2022-10-20T01:36:55.793Z,7.85
2022-10-20T01:39:41.086Z,7.95
2022-10-20T01:42:11.457Z,7.78
2022-10-20T01:44:39.126Z,7.86
2022-10-20T01:47:06.758Z,7.87
2022-10-20T01:49:33.504Z,7.79
2022-10-20T01:52:00.466Z,7.67
2022-10-20T01:54:29.326Z,7.58
2022-10-20T01:57:02.264Z,7.63
2022-10-20T01:59:46.586Z,7.71
2022-10-20T02:02:35.096Z,7.68
2022-10-20T02:05:30.016Z,7.60
2022-10-20T02:08:04.625Z,7.68
2022-10-20T02:10:38.996Z,7.64
2022-10-20T02:13:07.405Z,7.53
2022-10-20T02:15:37.406Z,7.59
2022-10-20T02:18:07.205Z,7.55
2022-10-20T02:20:34.058Z,7.54
2022-10-20T02:23:01.156Z,7.54
2022-10-20T02:25:28.505Z,7.60
2022-10-20T02:27:56.223Z,7.42
2022-10-20T02:30:23.156Z,7.50
2022-10-20T02:32:53.013Z,7.45
2022-10-20T02:35:27.522Z,7.42
2022-10-20T02:37:54.263Z,7.40
2022-10-20T02:40:22.383Z,7.41
2022-10-20T02:42:49.274Z,7.41
2022-10-20T02:45:16.254Z,7.36
2022-10-20T02:47:43.232Z,7.52
2022-10-20T02:50:10.295Z,7.44
2022-10-20T02:52:38.092Z,7.41
2022-10-20T02:55:05.876Z,7.37
2022-10-20T02:57:33.026Z,7.34
2022-10-20T02:59:59.964Z,7.36
2022-10-20T03:02:26.656Z,7.21
2022-10-20T03:04:53.366Z,7.21
2022-10-20T03:07:20.047Z,7.16
2022-10-20T03:09:46.825Z,7.09
2022-10-20T03:12:13.556Z,7.08
2022-10-20T03:14:42.256Z,6.96
2022-10-20T03:17:09.544Z,6.76
2022-10-20T03:19:36.291Z,6.71
2022-10-20T03:22:02.934Z,6.80
2022-10-20T03:24:29.623Z,6.85
2022-10-20T03:26:56.304Z,6.74
2022-10-20T03:29:23.006Z,6.86
2022-10-20T03:34:21.373Z,6.77
2022-10-20T03:36:48.077Z,6.81
2022-10-20T03:39:14.764Z,6.83
2022-10-20T03:41:41.447Z,6.79
2022-10-20T03:44:09.552Z,6.69
2022-10-20T03:46:36.196Z,6.75
2022-10-20T03:49:03.664Z,6.67
2022-10-20T03:51:30.395Z,6.57
2022-10-20T03:53:57.056Z,6.64
2022-10-20T03:56:23.853Z,6.59
2022-10-20T03:58:50.640Z,6.67
2022-10-20T04:01:20.184Z,6.47
2022-10-20T04:03:47.254Z,6.33
2022-10-20T04:06:14.736Z,6.49
2022-10-20T04:08:41.767Z,6.50
2022-10-20T04:11:08.696Z,6.56
2022-10-20T04:13:35.507Z,6.51
2022-10-20T04:16:02.206Z,6.52
2022-10-20T04:18:28.949Z,6.62
2022-10-20T04:20:55.533Z,6.57
2022-10-20T04:23:22.160Z,6.34
2022-10-20T04:25:48.828Z,6.37
2022-10-20T04:28:17.374Z,6.26
2022-10-20T04:30:44.526Z,6.35
2022-10-20T04:33:11.617Z,6.40
2022-10-20T04:35:38.561Z,6.41
2022-10-20T04:38:05.578Z,6.36
2022-10-20T04:40:32.342Z,6.34
2022-10-20T04:43:02.194Z,6.30
2022-10-20T04:45:28.895Z,6.32
2022-10-20T04:47:55.658Z,6.36
2022-10-20T04:50:22.404Z,6.19
2022-10-20T04:52:48.971Z,6.20
2022-10-20T04:55:15.559Z,6.32
2022-10-20T04:57:42.110Z,6.19
2022-10-20T05:00:09.403Z,6.02
2022-10-20T05:02:36.109Z,6.00
2022-10-20T05:05:02.856Z,5.99
2022-10-20T05:07:30.626Z,6.04
2022-10-20T05:09:57.353Z,6.02
2022-10-20T05:12:24.050Z,5.83
2022-10-20T05:14:50.643Z,5.97
2022-10-20T05:17:17.369Z,5.79
2022-10-20T05:19:44.152Z,6.02
2022-10-20T05:22:11.120Z,6.05
2022-10-20T05:24:37.949Z,5.98
2022-10-20T05:27:04.634Z,6.05
2022-10-20T05:29:31.461Z,6.12
2022-10-20T05:31:58.194Z,6.09
2022-10-20T05:34:25.275Z,6.00
2022-10-20T05:36:53.942Z,6.16
2022-10-20T05:39:20.821Z,6.08
2022-10-20T05:41:47.533Z,6.10
2022-10-20T05:44:14.264Z,6.09
2022-10-20T05:46:43.770Z,6.28
2022-10-20T05:49:14.254Z,6.32
2022-10-20T05:51:41.376Z,6.27
2022-10-20T05:54:11.335Z,6.22
2022-10-20T05:56:38.193Z,6.19
2022-10-20T05:59:04.951Z,6.20
2022-10-20T06:01:48.438Z,6.31
2022-10-20T06:04:23.716Z,6.28
2022-10-20T06:06:52.460Z,6.30
2022-10-20T06:09:19.638Z,6.28
2022-10-20T06:11:46.462Z,6.43
2022-10-20T06:14:13.236Z,6.55
2022-10-20T06:16:40.092Z,6.53
2022-10-20T06:19:07.315Z,6.53
2022-10-20T06:21:35.326Z,6.66
2022-10-20T06:24:04.790Z,6.56
2022-10-20T06:26:33.469Z,6.55
2022-10-20T06:29:04.398Z,6.75
2022-10-20T06:31:39.078Z,6.96
2022-10-20T06:34:12.823Z,7.19
2022-10-20T06:36:40.667Z,7.15
2022-10-20T06:39:09.152Z,7.34
2022-10-20T06:41:35.952Z,7.54
2022-10-20T06:44:03.001Z,7.58
2022-10-20T06:46:31.791Z,7.70
2022-10-20T06:49:03.868Z,7.60
2022-10-20T06:51:31.254Z,7.40
2022-10-20T06:53:59.433Z,7.32
2022-10-20T06:56:29.006Z,7.50
2022-10-20T06:58:56.893Z,7.61
2022-10-20T07:01:25.734Z,7.70
2022-10-20T07:03:54.731Z,7.71
2022-10-20T07:06:26.813Z,7.76
2022-10-20T07:08:54.235Z,7.75
2022-10-20T07:11:22.832Z,7.70
2022-10-20T07:13:49.636Z,7.67
2022-10-20T07:16:21.133Z,7.70
2022-10-20T07:18:48.454Z,7.85
2022-10-20T07:21:17.975Z,7.96
2022-10-20T07:23:44.813Z,8.09
2022-10-20T07:26:20.121Z,8.13
2022-10-20T07:28:54.802Z,8.15
2022-10-20T07:31:49.019Z,8.05
2022-10-20T07:34:26.710Z,8.08
2022-10-20T07:36:54.297Z,8.18
2022-10-20T07:39:21.451Z,8.41
2022-10-20T07:41:48.828Z,8.41
2022-10-20T07:44:16.157Z,8.35
2022-10-20T07:46:42.960Z,8.49
2022-10-20T07:51:56.453Z,8.41
2022-10-20T07:54:23.241Z,8.48
2022-10-20T07:56:49.980Z,8.62
2022-10-20T07:59:17.092Z,8.86
2022-10-20T08:01:44.381Z,8.88
2022-10-20T08:04:11.383Z,8.93
2022-10-20T08:06:39.210Z,9.10
2022-10-20T08:09:06.456Z,9.00
2022-10-20T08:11:33.331Z,9.23
2022-10-20T08:14:00.111Z,9.45
2022-10-20T08:16:28.893Z,9.60
2022-10-20T08:21:45.918Z,9.72
2022-10-20T08:24:12.672Z,9.68
2022-10-20T08:26:39.381Z,10.05
2022-10-20T08:29:06.662Z,10.37
2022-10-20T08:31:33.401Z,10.94
2022-10-20T08:34:00.191Z,11.06
2022-10-20T08:36:28.373Z,12.19
2022-10-20T08:38:56.436Z,12.79
2022-10-20T08:41:27.048Z,12.86
2022-10-20T08:43:56.700Z,12.92
2022-10-20T08:46:30.096Z,13.56
2022-10-20T08:48:57.655Z,14.15
2022-10-20T08:51:33.182Z,13.79
2022-10-20T08:54:01.713Z,14.02
2022-10-20T08:56:30.182Z,14.39
2022-10-20T08:58:57.291Z,14.65
2022-10-20T09:01:31.031Z,14.38
2022-10-20T09:04:00.759Z,14.33
2022-10-20T09:06:27.636Z,14.40
2022-10-20T09:08:55.434Z,14.74
2022-10-20T09:11:31.639Z,14.32
2022-10-20T09:13:58.364Z,14.59
2022-10-20T09:16:58.791Z,15.23
2022-10-20T09:19:25.215Z,16.38
2022-10-20T09:21:54.025Z,16.59
2022-10-20T09:24:22.748Z,16.45
2022-10-20T09:26:59.607Z,17.13
2022-10-20T09:29:37.786Z,17.24
2022-10-20T09:32:44.938Z,17.29
2022-10-20T09:35:33.361Z,17.59
2022-10-20T09:38:29.677Z,18.00
2022-10-20T09:41:14.062Z,17.95
2022-10-20T09:44:01.969Z,17.78
2022-10-20T09:46:30.693Z,17.77
2022-10-20T09:48:57.671Z,18.31
2022-10-20T09:51:27.264Z,18.40
2022-10-20T09:54:18.762Z,18.59
2022-10-20T09:56:47.015Z,18.59
2022-10-20T09:59:23.064Z,18.91
2022-10-20T10:02:15.713Z,19.05
2022-10-20T10:04:44.849Z,18.76
2022-10-20T10:07:26.795Z,19.01
2022-10-20T10:09:56.170Z,18.11
2022-10-20T10:12:24.141Z,19.19
2022-10-20T10:14:59.644Z,19.25
2022-10-20T10:17:31.564Z,18.81
2022-10-20T10:19:58.625Z,19.01
2022-10-20T10:22:25.492Z,19.13
2022-10-20T10:24:55.114Z,19.07
2022-10-20T10:27:31.624Z,19.30
2022-10-20T10:30:17.350Z,19.21
2022-10-20T10:32:44.447Z,19.03
2022-10-20T10:35:20.287Z,19.81
2022-10-20T10:37:47.990Z,20.14
2022-10-20T10:40:15.330Z,20.10
2022-10-20T10:43:08.826Z,19.37
2022-10-20T10:45:51.836Z,19.56
2022-10-20T10:48:56.856Z,20.24
2022-10-20T10:51:45.337Z,20.21
2022-10-20T10:54:25.886Z,20.08
2022-10-20T10:56:57.904Z,20.02
2022-10-20T10:59:35.377Z,19.58
2022-10-20T11:02:40.307Z,19.34
2022-10-20T11:05:24.640Z,19.38
2022-10-20T11:08:04.444Z,19.76
2022-10-20T11:10:53.817Z,19.83
2022-10-20T11:13:43.367Z,19.69
2022-10-20T11:16:15.707Z,20.06
2022-10-20T11:18:54.427Z,19.35
2022-10-20T11:21:44.748Z,20.22
2022-10-20T11:24:35.909Z,19.91
2022-10-20T11:27:25.899Z,20.30
2022-10-20T11:30:04.987Z,20.64
2022-10-20T11:32:38.476Z,20.66
2022-10-20T11:35:36.137Z,20.74
2022-10-20T11:38:17.476Z,20.53
2022-10-20T11:40:49.328Z,20.05
2022-10-20T11:43:51.109Z,19.52
2022-10-20T11:46:38.006Z,20.17
2022-10-20T11:49:05.046Z,20.33
2022-10-20T11:51:31.750Z,19.86
2022-10-20T11:54:04.916Z,20.20
2022-10-20T11:56:47.396Z,20.20
2022-10-20T11:59:39.036Z,20.13
2022-10-20T12:02:14.975Z,20.48
2022-10-20T12:05:08.986Z,20.25
2022-10-20T12:08:10.967Z,20.49
2022-10-20T12:11:11.438Z,20.81
2022-10-20T12:13:47.003Z,20.22
2022-10-20T12:16:54.146Z,20.82
2022-10-20T12:19:34.926Z,21.09
2022-10-20T12:22:06.276Z,20.90
2022-10-20T12:24:44.589Z,20.75
2022-10-20T12:27:11.258Z,20.89
2022-10-20T12:29:37.916Z,20.71
2022-10-20T12:32:25.968Z,20.64
2022-10-20T12:35:00.407Z,20.73
2022-10-20T12:37:30.783Z,21.20
2022-10-20T12:40:06.606Z,20.76
2022-10-20T12:42:34.676Z,20.21
2022-10-20T12:45:07.216Z,20.71
2022-10-20T12:47:36.422Z,20.61
2022-10-20T12:50:03.806Z,20.51
2022-10-20T12:52:35.785Z,20.99
2022-10-20T12:55:09.327Z,20.12
2022-10-20T12:57:41.823Z,20.56
2022-10-20T13:00:29.041Z,20.67
2022-10-20T13:02:57.495Z,20.55
2022-10-20T13:05:46.856Z,20.81
2022-10-20T13:08:19.467Z,20.88
2022-10-20T13:10:46.771Z,20.90
2022-10-20T13:13:13.437Z,21.01
2022-10-20T13:15:42.723Z,20.90
2022-10-20T13:18:12.771Z,20.60
2022-10-20T13:21:02.627Z,20.61
2022-10-20T13:23:40.716Z,20.50
2022-10-20T13:26:46.037Z,20.46
2022-10-20T13:29:28.987Z,20.08
2022-10-20T13:32:27.940Z,20.47
2022-10-20T13:35:07.764Z,20.58
2022-10-20T13:38:25.906Z,20.73
2022-10-20T13:41:14.151Z,20.83
2022-10-20T13:44:12.103Z,20.43
2022-10-20T13:46:42.081Z,20.47
2022-10-20T13:49:40.647Z,20.56
2022-10-20T13:52:12.202Z,20.77
2022-10-20T13:54:44.748Z,20.59
2022-10-20T13:57:30.356Z,20.38
2022-10-20T14:00:02.800Z,20.42
2022-10-20T14:02:36.403Z,20.42
2022-10-20T14:05:22.946Z,20.23
2022-10-20T14:07:52.388Z,20.59
2022-10-20T14:10:21.898Z,20.26
2022-10-20T14:12:48.757Z,20.16
2022-10-20T14:15:23.516Z,20.04
2022-10-20T14:18:03.061Z,20.02
2022-10-20T14:20:31.847Z,19.63
2022-10-20T14:22:59.876Z,19.83
2022-10-20T14:25:27.766Z,19.54
2022-10-20T14:27:56.217Z,19.34
2022-10-20T14:30:24.155Z,19.44
2022-10-20T14:32:51.497Z,19.07
2022-10-20T14:35:26.205Z,18.81
2022-10-20T14:38:14.796Z,18.66
2022-10-20T14:40:41.737Z,18.46
2022-10-20T14:43:21.036Z,17.98
2022-10-20T14:45:56.216Z,17.79
2022-10-20T14:48:23.187Z,17.64
2022-10-20T14:50:50.256Z,17.46
2022-10-20T14:53:27.404Z,17.27
2022-10-20T14:55:55.305Z,17.39
2022-10-20T14:58:31.256Z,17.09
2022-10-20T15:01:29.090Z,16.56
2022-10-20T15:04:16.234Z,16.55
2022-10-20T15:06:43.986Z,16.59
2022-10-20T15:09:30.042Z,16.32
2022-10-20T15:11:56.866Z,16.39
2022-10-20T15:14:23.780Z,16.22
2022-10-20T15:16:50.758Z,16.23
2022-10-20T15:19:23.626Z,16.09
2022-10-20T15:21:57.937Z,16.04
2022-10-20T15:24:24.684Z,16.04
2022-10-20T15:26:51.534Z,16.05
2022-10-20T15:29:18.637Z,16.04
2022-10-20T15:31:45.297Z,16.00
2022-10-20T15:34:12.487Z,15.87
2022-10-20T15:36:42.080Z,15.63
2022-10-20T15:39:09.491Z,15.56
2022-10-20T15:41:36.820Z,15.62
2022-10-20T15:44:05.566Z,15.45
2022-10-20T15:46:32.196Z,15.45
2022-10-20T15:48:58.947Z,15.47
2022-10-20T15:51:30.520Z,15.31
2022-10-20T15:53:57.808Z,15.27
2022-10-20T15:56:24.847Z,15.40
2022-10-20T15:58:51.789Z,15.29
2022-10-20T16:01:20.786Z,15.09
2022-10-20T16:03:48.296Z,15.01
2022-10-20T16:06:17.036Z,14.90
2022-10-20T16:08:45.665Z,14.83
2022-10-20T16:11:13.415Z,14.77
2022-10-20T16:13:40.362Z,14.76
2022-10-20T16:16:08.896Z,14.68
2022-10-20T16:18:35.607Z,14.66
2022-10-20T16:21:04.454Z,14.63
2022-10-20T16:23:31.196Z,14.55
2022-10-20T16:25:57.917Z,14.47
2022-10-20T16:28:24.600Z,14.42
2022-10-20T16:30:51.288Z,14.30
2022-10-20T16:33:18.006Z,14.33
2022-10-20T16:35:44.747Z,14.20
2022-10-20T16:38:11.568Z,14.23
2022-10-20T16:40:38.319Z,14.30
2022-10-20T16:43:05.125Z,14.29
2022-10-20T16:45:31.864Z,14.16
2022-10-20T16:47:58.525Z,14.09
2022-10-20T16:50:25.225Z,13.87
2022-10-20T16:52:51.876Z,13.78
2022-10-20T16:55:18.613Z,13.74
2022-10-20T16:57:45.377Z,13.83
2022-10-20T17:00:12.800Z,13.88
2022-10-20T17:02:42.987Z,13.91
2022-10-20T17:05:09.918Z,13.76
2022-10-20T17:07:36.969Z,13.74
2022-10-20T17:10:04.046Z,13.73
2022-10-20T17:12:30.768Z,13.59
2022-10-20T17:14:57.559Z,13.46
2022-10-20T17:17:24.256Z,13.54
2022-10-20T17:19:50.957Z,13.33
2022-10-20T17:22:17.737Z,13.20
2022-10-20T17:24:44.406Z,13.19
2022-10-20T17:27:11.116Z,13.19
2022-10-20T17:29:37.827Z,13.14
2022-10-20T17:32:04.796Z,12.99
2022-10-20T17:34:31.557Z,12.87
2022-10-20T17:36:58.334Z,12.91
2022-10-20T17:39:25.066Z,12.99
2022-10-20T17:41:51.894Z,13.01
2022-10-20T17:44:18.557Z,13.02
2022-10-20T17:46:45.375Z,12.91
2022-10-20T17:49:12.046Z,12.88
2022-10-20T17:51:38.996Z,12.90
2022-10-20T17:54:05.730Z,12.79
2022-10-20T17:56:37.226Z,12.63
2022-10-20T17:59:05.717Z,12.66
2022-10-20T18:01:35.060Z,12.31
2022-10-20T18:04:10.690Z,12.25
2022-10-20T18:06:37.766Z,12.28
2022-10-20T18:09:12.699Z,12.02
2022-10-20T18:11:41.734Z,12.11
2022-10-20T18:14:08.474Z,12.12
2022-10-20T18:16:36.980Z,12.03
2022-10-20T18:19:04.940Z,11.94
2022-10-20T18:21:32.311Z,11.89
2022-10-20T18:24:04.345Z,11.83
2022-10-20T18:26:33.087Z,11.73
2022-10-20T18:29:01.952Z,11.80
2022-10-20T18:31:31.025Z,11.75
2022-10-20T18:34:04.361Z,11.64
2022-10-20T18:36:33.088Z,11.56
2022-10-20T18:39:00.211Z,11.55
2022-10-20T18:41:31.652Z,11.66
2022-10-20T18:44:00.443Z,11.47
2022-10-20T18:46:28.768Z,11.51
2022-10-20T18:48:56.027Z,11.49
2022-10-20T18:51:23.203Z,11.44
2022-10-20T18:53:55.336Z,11.31
2022-10-20T18:56:23.656Z,11.27
2022-10-20T18:59:01.919Z,11.16
2022-10-20T19:01:31.401Z,11.10
2022-10-20T19:03:59.406Z,11.14
2022-10-20T19:06:34.576Z,11.25
2022-10-20T19:09:04.640Z,11.06
2022-10-20T19:11:33.295Z,11.09
2022-10-20T19:14:00.665Z,11.10
2022-10-20T19:16:29.857Z,10.88
2022-10-20T19:18:57.529Z,10.90
2022-10-20T19:21:25.563Z,10.88
2022-10-20T19:24:03.883Z,10.86
2022-10-20T19:26:33.057Z,10.96
2022-10-20T19:29:03.857Z,11.00
2022-10-20T19:31:37.650Z,11.08
2022-10-20T19:34:08.697Z,10.99
2022-10-20T19:36:36.096Z,10.99
2022-10-20T19:39:05.016Z,10.88
2022-10-20T19:41:31.777Z,10.85
2022-10-20T19:43:58.656Z,10.72
2022-10-20T19:46:25.281Z,10.71
2022-10-20T19:48:52.384Z,10.68
2022-10-20T19:51:20.646Z,10.78
2022-10-20T19:53:48.238Z,10.69
2022-10-20T19:56:15.333Z,10.61
2022-10-20T19:58:45.721Z,10.42
2022-10-20T20:01:13.801Z,10.44
2022-10-20T20:03:40.665Z,10.47
2022-10-20T20:06:11.197Z,10.44
2022-10-20T20:08:38.186Z,10.43
2022-10-20T20:11:06.002Z,10.53
2022-10-20T20:13:33.049Z,10.46
2022-10-20T20:16:07.526Z,10.47
2022-10-20T20:18:35.425Z,10.46
2022-10-20T20:21:04.422Z,10.48
2022-10-20T20:23:41.114Z,10.47
2022-10-20T20:26:18.722Z,10.50
2022-10-20T20:28:45.262Z,10.49
2022-10-20T20:31:12.517Z,10.41
2022-10-20T20:33:39.279Z,10.30
2022-10-20T20:36:08.535Z,10.27
2022-10-20T20:38:37.445Z,10.33
2022-10-20T20:41:06.956Z,10.30
2022-10-20T20:43:35.049Z,10.20
2022-10-20T20:46:06.324Z,10.34
2022-10-20T20:48:33.549Z,10.22
2022-10-20T20:51:00.427Z,10.24
2022-10-20T20:53:27.146Z,10.28
2022-10-20T20:55:58.666Z,10.31
2022-10-20T20:58:26.266Z,10.12
2022-10-20T21:01:01.003Z,10.01
2022-10-20T21:03:27.733Z,10.15
2022-10-20T21:05:54.281Z,10.05
2022-10-20T21:08:20.909Z,10.02
2022-10-20T21:10:47.458Z,10.16
2022-10-20T21:13:14.009Z,10.27
2022-10-20T21:15:40.642Z,10.10
2022-10-20T21:18:07.234Z,10.03
2022-10-20T21:20:33.820Z,9.97
2022-10-20T21:23:00.434Z,9.90
2022-10-20T21:25:27.034Z,9.88
2022-10-20T21:27:53.573Z,9.91
2022-10-20T21:30:20.311Z,9.83
2022-10-20T21:32:46.874Z,9.95
2022-10-20T21:35:13.467Z,10.05
2022-10-20T21:37:40.078Z,9.96
2022-10-20T21:40:07.208Z,9.95
2022-10-20T21:42:33.846Z,10.01
2022-10-20T21:45:00.411Z,9.92
2022-10-20T21:47:27.014Z,9.84
2022-10-20T21:49:53.594Z,9.82
2022-10-20T21:52:20.151Z,9.75
2022-10-20T21:54:46.738Z,9.79
2022-10-20T21:57:14.464Z,9.78
2022-10-20T21:59:41.121Z,9.82
2022-10-20T22:02:13.621Z,9.90
2022-10-20T22:04:40.210Z,10.00
2022-10-20T22:07:06.897Z,10.00
2022-10-20T22:09:33.494Z,10.07
2022-10-20T22:12:00.123Z,10.17
2022-10-20T22:14:27.427Z,10.21
2022-10-20T22:16:55.618Z,10.22
2022-10-20T22:19:23.685Z,10.10
2022-10-20T22:21:51.643Z,10.17
2022-10-20T22:24:18.929Z,10.11
2022-10-20T22:26:45.924Z,10.11
2022-10-20T22:29:12.945Z,10.16
2022-10-20T22:31:40.589Z,10.14
2022-10-20T22:34:07.643Z,10.03
2022-10-20T22:36:34.651Z,10.18
2022-10-20T22:39:01.420Z,10.05
2022-10-20T22:41:28.035Z,9.89
2022-10-20T22:43:54.570Z,9.90
2022-10-20T22:46:21.240Z,9.98
2022-10-20T22:48:47.896Z,9.99
2022-10-20T22:51:15.369Z,9.98
2022-10-20T22:53:42.674Z,10.01
2022-10-20T22:56:11.781Z,10.11
2022-10-20T22:58:38.930Z,10.17
2022-10-20T23:01:10.265Z,10.23
2022-10-20T23:03:37.460Z,10.13
2022-10-20T23:06:14.498Z,10.17
2022-10-20T23:08:43.352Z,10.05
2022-10-20T23:11:10.456Z,10.11
2022-10-20T23:13:37.187Z,10.16
2022-10-20T23:16:04.134Z,10.20
2022-10-20T23:18:30.826Z,10.23
2022-10-20T23:20:58.299Z,10.24
2022-10-20T23:23:25.608Z,10.19
2022-10-20T23:25:52.354Z,10.23
2022-10-20T23:28:19.697Z,10.24
2022-10-20T23:30:46.477Z,10.24
2022-10-20T23:33:13.576Z,10.28
2022-10-20T23:35:40.667Z,10.10
2022-10-20T23:38:09.681Z,9.92
2022-10-20T23:40:36.867Z,9.92
2022-10-20T23:43:03.529Z,9.82
2022-10-20T23:45:32.855Z,9.80
2022-10-20T23:48:02.174Z,9.81
2022-10-20T23:50:28.866Z,9.87
2022-10-20T23:52:55.577Z,9.81
2022-10-20T23:55:22.285Z,9.91
2022-10-20T23:57:50.350Z,9.97
